createdAt,value
2023-02-17T00:01:23.337Z,101150.91
2023-02-17T00:04:29.233Z,101148.09
2023-02-17T00:07:34.662Z,101148.91
2023-02-17T00:10:38.260Z,101150.62
2023-02-17T00:13:41.663Z,101148.00
2023-02-17T00:16:48.854Z,101153.88
2023-02-17T00:19:55.846Z,101141.13
2023-02-17T00:22:58.854Z,101142.75
2023-02-17T00:26:07.437Z,101141.06
2023-02-17T00:29:11.947Z,101147.84
2023-02-17T00:32:16.617Z,101142.78
2023-02-17T00:35:19.370Z,101134.19
2023-02-17T00:38:22.899Z,101134.16
2023-02-17T00:41:26.247Z,101135.16
2023-02-17T00:44:29.806Z,101138.59
2023-02-17T00:47:34.028Z,101136.81
2023-02-17T00:50:39.115Z,101142.63
2023-02-17T00:53:42.110Z,101146.75
2023-02-17T00:56:47.198Z,101144.22
2023-02-17T00:59:55.307Z,101153.62
2023-02-17T01:03:10.786Z,101141.53
2023-02-17T01:06:22.515Z,101144.03
2023-02-17T01:09:30.204Z,101130.41
2023-02-17T01:12:34.014Z,101127.78
2023-02-17T01:15:45.112Z,101133.50
2023-02-17T01:18:50.493Z,101137.03
2023-02-17T01:21:58.132Z,101132.75
2023-02-17T01:25:08.799Z,101131.97
2023-02-17T01:28:18.441Z,101128.53
2023-02-17T01:31:23.514Z,101128.53
2023-02-17T01:34:26.553Z,101121.63
2023-02-17T01:37:33.665Z,101116.50
2023-02-17T01:40:36.455Z,101111.19
2023-02-17T01:43:41.034Z,101111.03
2023-02-17T01:46:45.810Z,101118.81
2023-02-17T01:49:50.846Z,101111.03
2023-02-17T01:52:56.385Z,101107.69
2023-02-17T01:56:00.520Z,101102.63
2023-02-17T01:59:13.343Z,101098.34
2023-02-17T02:02:17.044Z,101103.59
2023-02-17T02:05:20.553Z,101099.41
2023-02-17T02:08:36.954Z,101100.16
2023-02-17T02:11:47.522Z,101095.03
2023-02-17T02:14:58.067Z,101095.09
2023-02-17T02:18:24.635Z,101094.31
2023-02-17T02:21:44.524Z,101084.19
2023-02-17T02:24:57.527Z,101091.97
2023-02-17T02:28:29.220Z,101093.03
2023-02-17T02:31:52.382Z,101089.72
2023-02-17T02:35:03.460Z,101082.22
2023-02-17T02:38:13.672Z,101077.16
2023-02-17T02:41:32.622Z,101068.59
2023-02-17T02:44:36.077Z,101084.84
2023-02-17T02:47:47.895Z,101077.87
2023-02-17T02:50:51.196Z,101073.59
2023-02-17T02:54:11.901Z,101073.59
2023-02-17T02:57:25.218Z,101082.34
2023-02-17T03:00:41.843Z,101074.50
2023-02-17T03:03:56.557Z,101068.31
2023-02-17T03:07:06.053Z,101071.72
2023-02-17T03:10:13.132Z,101069.88
2023-02-17T03:13:20.834Z,101075.13
2023-02-17T03:16:25.104Z,101074.28
2023-02-17T03:19:31.219Z,101076.00
2023-02-17T03:22:47.336Z,101083.63
2023-02-17T03:25:54.795Z,101091.31
2023-02-17T03:28:58.355Z,101088.03
2023-02-17T03:32:06.719Z,101081.16
2023-02-17T03:35:14.563Z,101083.84
2023-02-17T03:38:17.416Z,101088.09
2023-02-17T03:41:19.842Z,101083.81
2023-02-17T03:44:24.029Z,101094.94
2023-02-17T03:47:26.191Z,101095.69
2023-02-17T03:50:33.596Z,101100.88
2023-02-17T03:53:39.665Z,101093.00
2023-02-17T03:56:50.095Z,101096.44
2023-02-17T03:59:54.989Z,101103.22
2023-02-17T04:03:00.199Z,101092.91
2023-02-17T04:06:11.388Z,101083.44
2023-02-17T04:09:19.166Z,101087.81
2023-02-17T04:12:23.809Z,101080.94
2023-02-17T04:15:30.155Z,101084.34
2023-02-17T04:18:36.559Z,101089.41
2023-02-17T04:21:45.276Z,101088.50
2023-02-17T04:24:56.690Z,101094.41
2023-02-17T04:28:06.621Z,101086.62
2023-02-17T04:31:15.821Z,101077.19
2023-02-17T04:34:22.238Z,101072.22
2023-02-17T04:37:26.858Z,101069.50
2023-02-17T04:40:34.907Z,101081.47
2023-02-17T04:43:39.704Z,101088.34
2023-02-17T04:46:42.183Z,101083.16
2023-02-17T04:49:45.531Z,101076.41
2023-02-17T04:52:50.957Z,101079.81
2023-02-17T04:55:57.990Z,101074.50
2023-02-17T04:59:04.798Z,101073.47
2023-02-17T05:02:08.806Z,101075.03
2023-02-17T05:05:20.723Z,101085.09
2023-02-17T05:08:23.693Z,101078.09
2023-02-17T05:11:28.158Z,101080.75
2023-02-17T05:14:33.472Z,101084.22
2023-02-17T05:17:37.993Z,101079.78
2023-02-17T05:20:41.500Z,101085.69
2023-02-17T05:23:45.256Z,101082.31
2023-02-17T05:26:49.379Z,101083.84
2023-02-17T05:29:53.011Z,101080.97
2023-02-17T05:32:58.275Z,101080.19
2023-02-17T05:36:08.984Z,101084.41
2023-02-17T05:39:12.168Z,101088.72
2023-02-17T05:42:15.024Z,101091.03
2023-02-17T05:45:23.455Z,101080.25
2023-02-17T05:48:28.079Z,101080.13
2023-02-17T05:51:31.548Z,101089.22
2023-02-17T05:54:34.784Z,101091.47
2023-02-17T05:57:39.626Z,101095.75
2023-02-17T06:00:43.273Z,101090.50
2023-02-17T06:03:46.731Z,101094.66
2023-02-17T06:06:52.334Z,101090.22
2023-02-17T06:09:56.108Z,101087.44
2023-02-17T06:12:59.198Z,101085.22
2023-02-17T06:16:07.867Z,101084.06
2023-02-17T06:19:13.558Z,101089.94
2023-02-17T06:22:18.619Z,101090.69
2023-02-17T06:25:22.217Z,101100.91
2023-02-17T06:28:39.865Z,101113.69
2023-02-17T06:31:47.790Z,101109.28
2023-02-17T06:34:59.129Z,101116.91
2023-02-17T06:38:10.148Z,101110.59
2023-02-17T06:41:16.073Z,101120.38
2023-02-17T06:44:19.059Z,101108.88
2023-02-17T06:47:31.478Z,101109.38
2023-02-17T06:50:34.562Z,101117.63
2023-02-17T06:53:37.558Z,101117.31
2023-02-17T06:56:42.351Z,101116.00
2023-02-17T07:03:08.865Z,101109.75
2023-02-17T07:06:14.396Z,101115.28
2023-02-17T07:09:18.406Z,101119.09
2023-02-17T07:12:21.643Z,101113.00
2023-02-17T07:15:29.958Z,101114.34
2023-02-17T07:18:38.861Z,101114.19
2023-02-17T07:21:42.775Z,101113.06
2023-02-17T07:24:46.177Z,101116.22
2023-02-17T07:27:49.990Z,101117.47
2023-02-17T07:30:58.724Z,101117.84
2023-02-17T07:34:02.536Z,101120.28
2023-02-17T07:37:06.440Z,101116.22
2023-02-17T07:40:09.650Z,101107.31
2023-02-17T07:43:14.682Z,101111.28
2023-02-17T07:46:25.756Z,101114.56
2023-02-17T07:49:29.864Z,101109.66
2023-02-17T07:52:33.784Z,101101.53
2023-02-17T07:55:42.628Z,101100.09
2023-02-17T07:58:48.480Z,101100.88
2023-02-17T08:01:57.553Z,101100.12
2023-02-17T08:05:02.024Z,101091.91
2023-02-17T08:08:25.596Z,101097.66
2023-02-17T08:11:54.575Z,101102.88
2023-02-17T08:14:59.876Z,101100.88
2023-02-17T08:18:06.342Z,101098.84
2023-02-17T08:21:12.812Z,101104.41
2023-02-17T08:24:16.909Z,101117.84
2023-02-17T08:27:29.126Z,101120.59
2023-02-17T08:30:33.936Z,101130.78
2023-02-17T08:33:38.235Z,101130.00
2023-02-17T08:36:44.228Z,101132.37
2023-02-17T08:39:47.236Z,101130.97
2023-02-17T08:42:49.606Z,101134.22
2023-02-17T08:45:57.385Z,101131.56
2023-02-17T08:49:00.730Z,101132.34
2023-02-17T08:52:04.632Z,101119.78
2023-02-17T08:55:14.492Z,101114.28
2023-02-17T08:58:20.453Z,101122.22
2023-02-17T09:01:27.244Z,101124.91
2023-02-17T09:04:35.001Z,101121.66
2023-02-17T09:07:40.446Z,101126.19
2023-02-17T09:10:43.985Z,101125.66
2023-02-17T09:13:50.082Z,101121.94
2023-02-17T09:16:54.028Z,101116.59
2023-02-17T09:19:57.271Z,101128.22
2023-02-17T09:23:00.545Z,101116.97
2023-02-17T09:26:19.031Z,101113.03
2023-02-17T09:29:22.698Z,101115.28
2023-02-17T09:32:26.035Z,101105.63
2023-02-17T09:35:30.131Z,101097.91
2023-02-17T09:38:36.532Z,101100.12
2023-02-17T09:41:54.431Z,101102.91
2023-02-17T09:45:07.172Z,101116.09
2023-02-17T09:48:13.043Z,101113.34
2023-02-17T09:51:35.497Z,101105.56
2023-02-17T09:54:42.199Z,101111.16
2023-02-17T09:57:52.422Z,101101.94
2023-02-17T10:00:57.085Z,101096.88
2023-02-17T10:03:59.769Z,101099.59
2023-02-17T10:07:16.260Z,101099.16
2023-02-17T10:10:27.133Z,101086.56
2023-02-17T10:13:31.990Z,101082.81
2023-02-17T10:16:43.881Z,101066.44
2023-02-17T10:20:06.471Z,101070.69
2023-02-17T10:23:25.615Z,101068.16
2023-02-17T10:26:54.835Z,101055.81
2023-02-17T10:29:58.603Z,101049.50
2023-02-17T10:33:12.502Z,101050.84
2023-02-17T10:36:42.031Z,101051.22
2023-02-17T10:39:54.807Z,101054.41
2023-02-17T10:43:17.999Z,101047.34
2023-02-17T10:46:35.126Z,101046.72
2023-02-17T10:49:41.389Z,101043.72
2023-02-17T10:52:44.159Z,101041.31
2023-02-17T10:56:12.152Z,101034.88
2023-02-17T10:59:41.056Z,101028.84
2023-02-17T11:02:46.501Z,101013.63
2023-02-17T11:05:59.232Z,101017.34
2023-02-17T11:09:04.093Z,101023.28
2023-02-17T11:12:25.112Z,101022.19
2023-02-17T11:15:34.906Z,101013.34
2023-02-17T11:18:53.164Z,101012.47
2023-02-17T11:21:59.762Z,101012.47
2023-02-17T11:25:05.099Z,101002.44
2023-02-17T11:28:12.783Z,100998.66
2023-02-17T11:31:30.421Z,101000.44
2023-02-17T11:34:36.503Z,100989.06
2023-02-17T11:37:45.225Z,100981.22
2023-02-17T11:41:04.711Z,100977.78
2023-02-17T11:44:14.351Z,100976.63
2023-02-17T11:47:39.477Z,100975.78
2023-02-17T11:50:48.694Z,100973.69
2023-02-17T11:54:29.597Z,100983.13
2023-02-17T11:57:36.397Z,100968.38
2023-02-17T12:00:46.512Z,100965.31
2023-02-17T12:04:05.070Z,100956.28
2023-02-17T12:07:34.677Z,100961.97
2023-02-17T12:10:50.430Z,100960.72
2023-02-17T12:14:09.434Z,100956.53
2023-02-17T12:17:19.746Z,100958.09
2023-02-17T12:20:44.589Z,100938.81
2023-02-17T12:23:49.341Z,100924.09
2023-02-17T12:27:04.207Z,100927.94
2023-02-17T12:30:34.237Z,100922.50
2023-02-17T12:33:45.098Z,100910.47
2023-02-17T12:36:53.725Z,100911.94
2023-02-17T12:40:18.068Z,100917.06
2023-02-17T12:43:24.501Z,100928.78
2023-02-17T12:46:38.653Z,100926.78
2023-02-17T12:49:51.164Z,100928.34
2023-02-17T12:52:59.783Z,100919.34
2023-02-17T12:56:08.290Z,100919.91
2023-02-17T12:59:25.870Z,100920.12
2023-02-17T13:02:35.538Z,100919.78
2023-02-17T13:05:58.452Z,100919.84
2023-02-17T13:09:11.265Z,100910.75
2023-02-17T13:12:14.146Z,100914.19
2023-02-17T13:15:35.350Z,100903.44
2023-02-17T13:18:50.236Z,100894.22
2023-02-17T13:21:55.343Z,100905.44
2023-02-17T13:25:01.729Z,100908.16
2023-02-17T13:28:32.498Z,100910.09
2023-02-17T13:31:57.773Z,100912.03
2023-02-17T13:35:09.544Z,100902.66
2023-02-17T13:38:15.597Z,100904.53
2023-02-17T13:41:21.352Z,100898.63
2023-02-17T13:44:29.535Z,100896.03
2023-02-17T13:47:40.057Z,100897.66
2023-02-17T13:50:47.722Z,100892.03
2023-02-17T13:53:53.310Z,100884.31
2023-02-17T13:56:56.442Z,100883.50
2023-02-17T14:00:10.665Z,100873.12
2023-02-17T14:03:23.833Z,100868.41
2023-02-17T14:06:32.352Z,100862.44
2023-02-17T14:09:36.808Z,100867.75
2023-02-17T14:12:42.024Z,100860.94
2023-02-17T14:16:00.765Z,100859.78
2023-02-17T14:19:10.049Z,100852.25
2023-02-17T14:22:32.576Z,100847.63
2023-02-17T14:25:39.375Z,100851.59
2023-02-17T14:28:53.008Z,100856.97
2023-02-17T14:31:57.778Z,100851.03
2023-02-17T14:35:16.451Z,100850.72
2023-02-17T14:38:26.131Z,100847.91
2023-02-17T14:41:32.324Z,100847.69
2023-02-17T14:44:36.536Z,100851.88
2023-02-17T14:47:43.363Z,100845.50
2023-02-17T14:50:47.730Z,100850.50
2023-02-17T14:53:56.788Z,100840.34
2023-02-17T14:57:19.954Z,100847.16
2023-02-17T15:00:23.117Z,100844.22
2023-02-17T15:03:33.212Z,100833.03
2023-02-17T15:06:48.565Z,100828.50
2023-02-17T15:09:52.192Z,100814.41
2023-02-17T15:12:55.160Z,100810.22
2023-02-17T15:15:59.225Z,100811.78
2023-02-17T15:19:02.568Z,100807.38
2023-02-17T15:22:07.764Z,100802.38
2023-02-17T15:25:14.212Z,100803.50
2023-02-17T15:28:18.477Z,100787.19
2023-02-17T15:31:22.187Z,100794.78
2023-02-17T15:34:32.366Z,100790.75
2023-02-17T15:37:36.798Z,100789.56
2023-02-17T15:40:42.451Z,100785.06
2023-02-17T15:43:50.792Z,100790.22
2023-02-17T15:46:55.559Z,100788.50
2023-02-17T15:49:59.147Z,100790.63
2023-02-17T15:53:01.987Z,100795.06
2023-02-17T15:56:07.194Z,100808.72
2023-02-17T15:59:12.991Z,100808.25
2023-02-17T16:02:22.040Z,100809.66
2023-02-17T16:05:26.144Z,100808.28
2023-02-17T16:08:28.395Z,100804.19
2023-02-17T16:11:34.890Z,100792.47
2023-02-17T16:14:38.246Z,100786.31
2023-02-17T16:17:41.582Z,100783.72
2023-02-17T16:20:56.043Z,100778.59
2023-02-17T16:24:02.343Z,100771.63
2023-02-17T16:27:08.699Z,100780.47
2023-02-17T16:30:35.197Z,100780.66
2023-02-17T16:33:38.325Z,100786.19
2023-02-17T16:36:41.756Z,100779.53
2023-02-17T16:39:44.758Z,100782.47
2023-02-17T16:42:47.405Z,100773.06
2023-02-17T16:45:57.640Z,100769.13
2023-02-17T16:49:03.036Z,100769.78
2023-02-17T16:52:08.157Z,100761.12
2023-02-17T16:55:22.530Z,100765.16
2023-02-17T16:58:28.159Z,100768.03
2023-02-17T17:01:31.249Z,100756.09
2023-02-17T17:04:34.652Z,100755.44
2023-02-17T17:07:39.805Z,100744.66
2023-02-17T17:10:44.860Z,100753.00
2023-02-17T17:13:49.155Z,100753.56
2023-02-17T17:16:54.997Z,100744.97
2023-02-17T17:19:58.653Z,100744.72
2023-02-17T17:23:14.720Z,100746.03
2023-02-17T17:26:29.805Z,100732.53
2023-02-17T17:29:32.983Z,100721.16
2023-02-17T17:32:37.058Z,100714.22
2023-02-17T17:35:40.723Z,100724.22
2023-02-17T17:38:44.118Z,100736.72
2023-02-17T17:41:47.409Z,100726.75
2023-02-17T17:44:50.813Z,100727.28
2023-02-17T17:47:53.920Z,100724.84
2023-02-17T17:50:57.407Z,100730.47
2023-02-17T17:54:01.813Z,100724.28
2023-02-17T17:57:05.160Z,100722.91
2023-02-17T18:00:09.334Z,100730.47
2023-02-17T18:03:12.625Z,100721.84
2023-02-17T18:06:19.737Z,100722.91
2023-02-17T18:09:31.575Z,100723.03
2023-02-17T18:12:36.360Z,100714.63
2023-02-17T18:15:40.648Z,100704.91
2023-02-17T18:18:43.586Z,100702.88
2023-02-17T18:21:47.270Z,100709.72
2023-02-17T18:24:50.553Z,100711.72
2023-02-17T18:27:53.135Z,100712.31
2023-02-17T18:30:57.360Z,100708.63
2023-02-17T18:33:59.925Z,100713.00
2023-02-17T18:37:02.950Z,100701.06
2023-02-17T18:40:06.045Z,100703.59
2023-02-17T18:43:09.875Z,100702.00
2023-02-17T18:46:12.935Z,100691.03
2023-02-17T18:49:15.684Z,100689.69
2023-02-17T18:52:18.776Z,100682.41
2023-02-17T18:55:21.874Z,100671.69
2023-02-17T18:58:24.970Z,100672.94
2023-02-17T19:01:32.798Z,100673.81
2023-02-17T19:04:35.853Z,100666.06
2023-02-17T19:07:38.840Z,100672.44
2023-02-17T19:10:42.903Z,100678.47
2023-02-17T19:13:46.418Z,100670.94
2023-02-17T19:16:49.510Z,100664.25
2023-02-17T19:19:52.842Z,100655.69
2023-02-17T19:22:55.699Z,100648.13
2023-02-17T19:25:59.134Z,100655.09
2023-02-17T19:29:02.088Z,100660.13
2023-02-17T19:32:05.637Z,100653.16
2023-02-17T19:35:11.449Z,100647.22
2023-02-17T19:38:14.344Z,100657.53
2023-02-17T19:41:17.791Z,100648.06
2023-02-17T19:44:20.920Z,100652.31
2023-02-17T19:47:26.194Z,100650.41
2023-02-17T19:50:30.405Z,100657.22
2023-02-17T19:53:35.058Z,100630.88
2023-02-17T19:56:41.637Z,100631.03
2023-02-17T19:59:45.867Z,100619.53
2023-02-17T20:02:49.394Z,100626.72
2023-02-17T20:05:52.638Z,100625.72
2023-02-17T20:08:58.703Z,100626.53
2023-02-17T20:12:02.011Z,100596.84
2023-02-17T20:15:04.779Z,100595.63
2023-02-17T20:18:08.075Z,100577.69
2023-02-17T20:21:11.884Z,100575.28
2023-02-17T20:24:15.491Z,100558.91
2023-02-17T20:27:18.287Z,100552.97
2023-02-17T20:30:21.690Z,100546.72
2023-02-17T20:33:25.186Z,100547.53
2023-02-17T20:36:28.161Z,100539.94
2023-02-17T20:39:32.084Z,100527.50
2023-02-17T20:42:35.172Z,100526.09
2023-02-17T20:45:38.767Z,100522.09
2023-02-17T20:48:42.086Z,100526.00
2023-02-17T20:51:44.749Z,100515.72
2023-02-17T20:54:47.840Z,100523.75
2023-02-17T20:57:51.061Z,100533.75
2023-02-17T21:00:54.084Z,100522.84
2023-02-17T21:03:57.053Z,100515.75
2023-02-17T21:07:01.499Z,100521.00
2023-02-17T21:10:10.368Z,100526.84
2023-02-17T21:13:12.763Z,100520.47
2023-02-17T21:16:17.765Z,100529.66
2023-02-17T21:19:21.791Z,100534.44
2023-02-17T21:22:24.604Z,100540.97
2023-02-17T21:25:28.484Z,100543.44
2023-02-17T21:28:31.412Z,100533.38
2023-02-17T21:31:34.956Z,100539.31
2023-02-17T21:34:38.992Z,100552.31
2023-02-17T21:37:41.718Z,100557.84
2023-02-17T21:40:44.708Z,100565.03
2023-02-17T21:44:06.999Z,100568.28
2023-02-17T21:47:10.200Z,100572.19
2023-02-17T21:50:12.670Z,100581.12
2023-02-17T21:53:15.623Z,100579.03
2023-02-17T21:56:19.497Z,100576.22
2023-02-17T21:59:24.401Z,100587.38
2023-02-17T22:02:28.485Z,100591.66
2023-02-17T22:05:32.699Z,100591.06
2023-02-17T22:08:37.054Z,100592.84
2023-02-17T22:11:41.270Z,100597.09
2023-02-17T22:14:44.159Z,100601.06
2023-02-17T22:17:48.869Z,100600.47
2023-02-17T22:20:52.467Z,100584.50
2023-02-17T22:23:55.480Z,100576.88
2023-02-17T22:26:58.684Z,100569.97
2023-02-17T22:30:02.140Z,100565.59
2023-02-17T22:33:06.399Z,100574.16
2023-02-17T22:36:11.344Z,100581.06
2023-02-17T22:39:14.618Z,100568.72
2023-02-17T22:42:18.137Z,100575.81
2023-02-17T22:45:21.771Z,100577.06
2023-02-17T22:48:25.235Z,100583.22
2023-02-17T22:51:29.884Z,100590.84
2023-02-17T22:54:33.567Z,100593.53
2023-02-17T22:57:37.270Z,100593.53
2023-02-17T23:00:41.181Z,100586.22
2023-02-17T23:03:46.322Z,100591.56
2023-02-17T23:06:49.989Z,100588.53
2023-02-17T23:09:54.458Z,100582.47
2023-02-17T23:12:57.760Z,100584.25
2023-02-17T23:16:02.306Z,100569.22
2023-02-17T23:19:09.080Z,100563.59
2023-02-17T23:22:16.451Z,100563.16
2023-02-17T23:25:19.333Z,100554.28
2023-02-17T23:28:23.879Z,100563.28
2023-02-17T23:31:26.767Z,100550.44
2023-02-17T23:34:30.239Z,100561.78
2023-02-17T23:37:33.056Z,100544.88
2023-02-17T23:40:37.386Z,100550.00
2023-02-17T23:43:40.317Z,100532.28
2023-02-17T23:46:44.358Z,100534.22
2023-02-17T23:49:47.284Z,100532.78
2023-02-17T23:52:49.920Z,100542.69
2023-02-17T23:56:06.888Z,100545.00
2023-02-17T23:59:10.792Z,100539.91
